Time;durP1;ratioP1;P1;durP2;ratioP2;P2;SDS_P1;SDS_P2;PMS_P1;PMS_P2;Temp;Humidity;BMP_temperature;BMP_pressure;BME280_temperature;BME280_humidity;BME280_pressure;Samples;Min_cycle;Max_cycle;Signal;HPM_P1;HPM_P2
2024/04/03 00:00:55;;;;;;;6.07;3.28;;;;;;;;;;5032475;28;20040;-67
2024/04/03 00:03:20;;;;;;;4.88;3.17;;;;;;;;;;5028755;28;20507;-67
2024/04/03 00:05:46;;;;;;;5.22;2.90;;;;;;;;;;5035643;28;20044;-66
2024/04/03 00:08:11;;;;;;;5.55;3.97;;;;;;;;;;5086559;22;21838;-67
2024/04/03 00:10:36;;;;;;;5.18;3.00;;;;;;;;;;5016483;28;20479;-67
2024/04/03 00:13:02;;;;;;;7.60;4.60;;;;;;;;;;5016165;28;20036;-66
2024/04/03 00:15:27;;;;;;;9.85;3.13;;;;;;;;;;5016016;28;20053;-67
2024/04/03 00:17:53;;;;;;;5.53;3.72;;;;;;;;;;5015569;28;20480;-67
2024/04/03 00:20:20;;;;;;;7.30;3.50;;;;;;;;;;4998426;28;20030;-66
2024/04/03 00:22:45;;;;;;;6.55;3.00;;;;;;;;;;5031750;28;20036;-67
2024/04/03 00:25:10;;;;;;;6.47;2.75;;;;;;;;;;5015070;28;20022;-66
2024/04/03 00:27:36;;;;;;;7.78;3.30;;;;;;;;;;5011586;28;20026;-67
2024/04/03 00:30:01;;;;;;;6.38;3.85;;;;;;;;;;4995854;28;20076;-66
2024/04/03 00:32:27;;;;;;;3.90;2.22;;;;;;;;;;5014585;28;20046;-67
2024/04/03 00:34:52;;;;;;;4.55;2.85;;;;;;;;;;5016306;28;20052;-67
2024/04/03 00:37:19;;;;;;;6.03;2.72;;;;;;;;;;5014226;28;20026;-66
2024/04/03 00:39:44;;;;;;;4.85;3.08;;;;;;;;;;5030616;28;20037;-67
2024/04/03 00:42:09;;;;;;;4.07;2.05;;;;;;;;;;5014519;28;20025;-67
2024/04/03 00:44:35;;;;;;;4.72;2.75;;;;;;;;;;5013976;28;20431;-67
2024/04/03 00:47:02;;;;;;;4.60;3.05;;;;;;;;;;5015803;28;20021;-66
2024/04/03 00:49:28;;;;;;;4.32;2.78;;;;;;;;;;5015566;28;20022;-67
2024/04/03 00:51:53;;;;;;;5.45;3.00;;;;;;;;;;5015942;28;20050;-67
2024/04/03 00:54:21;;;;;;;5.97;2.70;;;;;;;;;;5015255;28;20022;-66
2024/04/03 00:56:46;;;;;;;4.65;2.50;;;;;;;;;;5014554;28;20075;-67
2024/04/03 00:59:12;;;;;;;4.07;2.33;;;;;;;;;;5014349;28;20030;-67
2024/04/03 01:01:37;;;;;;;7.07;2.88;;;;;;;;;;5015008;28;20041;-66
2024/04/03 01:04:02;;;;;;;6.70;3.47;;;;;;;;;;5014158;28;20045;-67
2024/04/03 01:06:28;;;;;;;8.55;2.95;;;;;;;;;;5015338;28;20460;-67
2024/04/03 01:08:53;;;;;;;5.43;2.53;;;;;;;;;;5014388;28;20025;-67
2024/04/03 01:11:19;;;;;;;6.95;3.70;;;;;;;;;;5014766;28;20021;-67
2024/04/03 01:13:45;;;;;;;7.22;3.63;;;;;;;;;;5029586;28;20073;-67
2024/04/03 01:16:10;;;;;;;4.90;2.90;;;;;;;;;;5014994;28;20041;-66
2024/04/03 01:18:36;;;;;;;5.97;3.13;;;;;;;;;;5013946;28;20483;-67
2024/04/03 01:21:01;;;;;;;7.85;3.25;;;;;;;;;;5014064;28;20018;-67
2024/04/03 01:23:27;;;;;;;6.93;3.13;;;;;;;;;;5015437;28;20028;-67
2024/04/03 01:25:52;;;;;;;5.68;2.95;;;;;;;;;;5015390;28;20441;-67
2024/04/03 01:28:19;;;;;;;5.93;2.83;;;;;;;;;;5014854;28;20128;-67
2024/04/03 01:30:45;;;;;;;4.72;3.10;;;;;;;;;;5014075;28;20029;-67
2024/04/03 01:33:10;;;;;;;4.75;2.90;;;;;;;;;;5015411;28;20373;-67
2024/04/03 01:35:35;;;;;;;7.00;3.67;;;;;;;;;;5015141;28;20026;-67
2024/04/03 01:38:01;;;;;;;8.02;3.40;;;;;;;;;;5014710;28;20030;-66
2024/04/03 01:40:26;;;;;;;6.75;3.55;;;;;;;;;;5013567;28;20028;-67
2024/04/03 01:42:51;;;;;;;4.82;2.92;;;;;;;;;;5015166;28;20124;-67
2024/04/03 01:45:17;;;;;;;5.70;3.35;;;;;;;;;;5015008;28;20030;-66
2024/04/03 01:47:43;;;;;;;6.45;4.25;;;;;;;;;;5014262;28;20022;-66
2024/04/03 01:50:10;;;;;;;5.10;2.67;;;;;;;;;;5014680;28;20029;-66
2024/04/03 01:52:35;;;;;;;5.03;2.75;;;;;;;;;;5013667;28;20030;-66
2024/04/03 01:55:00;;;;;;;7.25;3.22;;;;;;;;;;5014665;28;20431;-66
2024/04/03 01:57:26;;;;;;;6.60;3.05;;;;;;;;;;5014090;28;20036;-66
2024/04/03 01:59:51;;;;;;;7.43;3.45;;;;;;;;;;5014576;28;20022;-66
2024/04/03 02:02:16;;;;;;;6.20;3.72;;;;;;;;;;5013371;28;20468;-66
2024/04/03 02:04:42;;;;;;;6.60;3.22;;;;;;;;;;5014080;28;20042;-66
2024/04/03 02:07:07;;;;;;;6.88;3.35;;;;;;;;;;5014524;28;20387;-66
2024/04/03 02:09:34;;;;;;;7.78;3.38;;;;;;;;;;5014454;28;20036;-66
2024/04/03 02:12:00;;;;;;;5.65;3.17;;;;;;;;;;5014763;28;20036;-67
2024/04/03 02:14:25;;;;;;;5.47;3.25;;;;;;;;;;5014542;28;20022;-67
2024/04/03 02:16:50;;;;;;;6.32;3.35;;;;;;;;;;5014524;28;20437;-67
2024/04/03 02:19:16;;;;;;;11.90;4.40;;;;;;;;;;5013880;28;20063;-67
2024/04/03 02:21:41;;;;;;;7.50;3.60;;;;;;;;;;5014645;28;20026;-67
2024/04/03 02:24:07;;;;;;;9.55;4.55;;;;;;;;;;5012526;28;20471;-67
2024/04/03 02:26:32;;;;;;;9.65;4.07;;;;;;;;;;5014368;28;20026;-66
2024/04/03 02:28:57;;;;;;;8.85;4.43;;;;;;;;;;5013592;28;20064;-66
2024/04/03 02:31:23;;;;;;;7.03;3.88;;;;;;;;;;5014158;28;20072;-67
2024/04/03 02:33:49;;;;;;;7.82;4.03;;;;;;;;;;5014272;28;20049;-67
2024/04/03 02:36:14;;;;;;;8.32;4.18;;;;;;;;;;5013245;28;20029;-67
2024/04/03 02:38:40;;;;;;;9.65;4.00;;;;;;;;;;5014150;28;20032;-67
2024/04/03 02:41:05;;;;;;;8.07;4.45;;;;;;;;;;5014065;28;20080;-66
2024/04/03 02:43:30;;;;;;;10.70;5.65;;;;;;;;;;5013025;28;20033;-66
2024/04/03 02:45:56;;;;;;;8.65;4.88;;;;;;;;;;5013959;28;20028;-67
2024/04/03 02:48:21;;;;;;;7.28;4.72;;;;;;;;;;4996356;28;20107;-67
2024/04/03 02:50:59;;;;;;;9.52;5.38;;;;;;;;;;5010579;28;20025;-66
2024/04/03 02:53:24;;;;;;;12.48;5.38;;;;;;;;;;5012060;28;20105;-66
2024/04/03 02:55:49;;;;;;;7.95;4.07;;;;;;;;;;5013659;28;20038;-66
2024/04/03 02:58:15;;;;;;;10.23;4.80;;;;;;;;;;5013426;28;20018;-66
2024/04/03 03:00:40;;;;;;;10.30;5.03;;;;;;;;;;5013716;28;20022;-66
2024/04/03 03:03:05;;;;;;;4.78;3.13;;;;;;;;;;5012941;28;20403;-66
2024/04/03 03:05:31;;;;;;;5.68;3.33;;;;;;;;;;5013449;28;20038;-66
2024/04/03 03:07:56;;;;;;;8.07;4.25;;;;;;;;;;5011258;28;20033;-66
2024/04/03 03:10:21;;;;;;;5.63;3.05;;;;;;;;;;5012906;28;20525;-66
2024/04/03 03:12:47;;;;;;;6.38;3.38;;;;;;;;;;5013470;28;20036;-66
2024/04/03 03:15:12;;;;;;;9.85;3.72;;;;;;;;;;5013081;28;20024;-66
2024/04/03 03:17:37;;;;;;;7.43;3.35;;;;;;;;;;5012842;28;20026;-65
2024/04/03 03:20:03;;;;;;;11.40;5.25;;;;;;;;;;5013290;28;20022;-66
2024/04/03 03:22:28;;;;;;;10.18;4.57;;;;;;;;;;5012637;28;20069;-66
2024/04/03 03:24:54;;;;;;;7.60;3.83;;;;;;;;;;5012324;28;20488;-66
2024/04/03 03:27:19;;;;;;;6.22;2.90;;;;;;;;;;5012791;28;20024;-66
2024/04/03 03:29:44;;;;;;;7.47;3.83;;;;;;;;;;5012879;28;20072;-66
2024/04/03 03:32:10;;;;;;;6.22;3.40;;;;;;;;;;5012614;28;20032;-66
2024/04/03 03:34:35;;;;;;;4.55;3.58;;;;;;;;;;5013029;28;20022;-66
2024/04/03 03:37:00;;;;;;;5.80;4.10;;;;;;;;;;5016037;28;20025;-66
2024/04/03 03:39:26;;;;;;;5.60;2.90;;;;;;;;;;5017256;28;20034;-66
2024/04/03 03:41:51;;;;;;;6.70;3.25;;;;;;;;;;5017267;28;20034;-66
2024/04/03 03:44:16;;;;;;;7.38;4.05;;;;;;;;;;5015403;28;20026;-66
2024/04/03 03:46:42;;;;;;;7.72;3.78;;;;;;;;;;5017169;28;20480;-66
2024/04/03 03:54:36;;;;;;;6.88;2.83;;;;;;;;;;5015558;28;20530;-66
2024/04/03 03:57:02;;;;;;;8.35;3.75;;;;;;;;;;5017063;28;20042;-66
2024/04/03 03:59:27;;;;;;;7.00;3.42;;;;;;;;;;5016953;28;20399;-66
2024/04/03 04:01:53;;;;;;;7.05;3.90;;;;;;;;;;5016434;28;20021;-66
2024/04/03 04:04:18;;;;;;;6.85;3.60;;;;;;;;;;5016777;28;20048;-66
2024/04/03 04:06:43;;;;;;;7.95;3.15;;;;;;;;;;5016131;28;20034;-66
2024/04/03 04:09:09;;;;;;;10.95;4.07;;;;;;;;;;5016486;28;20030;-66
2024/04/03 04:11:34;;;;;;;9.27;4.40;;;;;;;;;;5015936;28;20030;-66
2024/04/03 04:13:59;;;;;;;4.78;2.80;;;;;;;;;;5016329;28;20043;-66
2024/04/03 04:16:25;;;;;;;7.30;3.53;;;;;;;;;;5015350;28;20441;-66
2024/04/03 04:18:50;;;;;;;6.97;3.25;;;;;;;;;;5016501;28;20029;-66
2024/04/03 04:21:16;;;;;;;9.30;4.80;;;;;;;;;;5015832;28;20040;-66
2024/04/03 04:23:41;;;;;;;7.20;3.70;;;;;;;;;;5015130;28;20026;-66
2024/04/03 04:26:06;;;;;;;7.43;3.78;;;;;;;;;;5015405;28;20083;-66
2024/04/03 04:28:32;;;;;;;4.75;3.15;;;;;;;;;;5016281;28;20384;-66
2024/04/03 04:30:58;;;;;;;6.13;2.88;;;;;;;;;;5015489;28;20025;-66
2024/04/03 04:33:24;;;;;;;6.05;3.35;;;;;;;;;;5016263;28;20475;-66
2024/04/03 04:35:55;;;;;;;5.97;2.90;;;;;;;;;;5016158;28;20455;-66
2024/04/03 04:38:22;;;;;;;5.93;3.10;;;;;;;;;;5016079;28;20025;-66
2024/04/03 04:40:57;;;;;;;6.85;3.40;;;;;;;;;;5015897;28;20431;-66
2024/04/03 04:43:23;;;;;;;5.22;3.05;;;;;;;;;;5031355;28;20054;-66
2024/04/03 04:45:59;;;;;;;7.07;2.90;;;;;;;;;;5014394;28;20030;-66
2024/04/03 04:48:26;;;;;;;5.93;3.20;;;;;;;;;;5013977;28;20434;-66
2024/04/03 04:50:52;;;;;;;7.47;3.22;;;;;;;;;;5015257;28;20026;-66
2024/04/03 04:53:17;;;;;;;10.65;4.20;;;;;;;;;;5015899;28;20021;-66
2024/04/03 04:56:10;;;;;;;8.25;4.38;;;;;;;;;;5014934;28;20032;-66
2024/04/03 04:58:36;;;;;;;6.30;3.08;;;;;;;;;;5014316;28;20125;-66
2024/04/03 05:01:03;;;;;;;7.88;3.47;;;;;;;;;;5015738;28;20021;-66
2024/04/03 05:03:28;;;;;;;9.90;4.35;;;;;;;;;;5015060;28;20026;-66
2024/04/03 05:05:54;;;;;;;8.60;4.15;;;;;;;;;;5015478;28;20049;-66
2024/04/03 05:08:19;;;;;;;4.72;3.08;;;;;;;;;;5014686;28;20034;-66
2024/04/03 05:10:52;;;;;;;9.80;4.18;;;;;;;;;;5015761;28;20017;-66
2024/04/03 05:13:18;;;;;;;8.43;3.50;;;;;;;;;;5014474;28;20365;-66
2024/04/03 05:15:45;;;;;;;7.03;3.70;;;;;;;;;;5015462;28;20032;-67
2024/04/03 05:18:11;;;;;;;8.32;3.92;;;;;;;;;;5015115;28;20038;-66
2024/04/03 05:20:36;;;;;;;8.60;3.83;;;;;;;;;;5015697;28;20025;-66
2024/04/03 05:23:01;;;;;;;8.00;5.00;;;;;;;;;;5016043;28;20025;-67
2024/04/03 05:25:27;;;;;;;7.68;3.78;;;;;;;;;;5014078;28;20026;-66
2024/04/03 05:27:52;;;;;;;8.18;4.78;;;;;;;;;;5015534;28;20480;-66
2024/04/03 05:30:17;;;;;;;8.23;4.38;;;;;;;;;;5014791;28;20038;-67
2024/04/03 05:32:43;;;;;;;7.38;3.90;;;;;;;;;;5015410;28;20022;-66
2024/04/03 05:35:08;;;;;;;6.68;3.42;;;;;;;;;;5015127;28;20021;-66
2024/04/03 05:37:33;;;;;;;9.45;3.85;;;;;;;;;;5015029;28;20037;-67
2024/04/03 05:39:59;;;;;;;8.15;4.45;;;;;;;;;;5013946;28;20032;-66
2024/04/03 05:42:24;;;;;;;8.82;4.63;;;;;;;;;;5030280;28;20026;-67
2024/04/03 05:44:49;;;;;;;7.65;3.70;;;;;;;;;;5015061;28;20026;-67
2024/04/03 05:47:15;;;;;;;7.60;3.85;;;;;;;;;;5015044;28;20391;-66
2024/04/03 05:49:40;;;;;;;12.38;4.47;;;;;;;;;;5014805;28;20083;-66
2024/04/03 05:52:07;;;;;;;7.63;5.03;;;;;;;;;;5013645;28;20120;-67
2024/04/03 05:54:32;;;;;;;9.82;4.43;;;;;;;;;;5013678;28;20028;-66
2024/04/03 05:56:57;;;;;;;10.07;4.28;;;;;;;;;;5014758;28;20018;-67
2024/04/03 05:59:23;;;;;;;8.32;3.78;;;;;;;;;;5014608;28;20026;-66
2024/04/03 06:01:48;;;;;;;8.60;3.65;;;;;;;;;;5015313;28;20374;-66
2024/04/03 06:04:14;;;;;;;8.07;3.90;;;;;;;;;;5014551;28;20064;-66
2024/04/03 06:06:40;;;;;;;9.55;5.38;;;;;;;;;;5013941;28;20053;-67
2024/04/03 06:09:05;;;;;;;9.93;4.18;;;;;;;;;;5036311;23;20042;-66
2024/04/03 06:11:31;;;;;;;10.75;5.70;;;;;;;;;;5014149;28;20028;-67
2024/04/03 06:13:56;;;;;;;10.40;4.22;;;;;;;;;;5014176;28;20467;-67
2024/04/03 06:16:21;;;;;;;8.52;4.43;;;;;;;;;;5014432;28;20022;-67
2024/04/03 06:18:47;;;;;;;9.63;4.90;;;;;;;;;;5014606;28;20076;-67
2024/04/03 06:21:13;;;;;;;8.45;4.18;;;;;;;;;;5012641;28;20430;-66
2024/04/03 06:23:38;;;;;;;11.77;4.65;;;;;;;;;;5013023;28;20033;-66
2024/04/03 06:26:04;;;;;;;9.20;4.47;;;;;;;;;;5014013;28;20084;-66
2024/04/03 06:28:29;;;;;;;9.60;4.68;;;;;;;;;;5013703;28;20403;-66
2024/04/03 06:30:55;;;;;;;8.75;4.68;;;;;;;;;;5014002;28;20398;-66
2024/04/03 06:33:20;;;;;;;10.75;4.88;;;;;;;;;;5013520;28;20377;-67
2024/04/03 06:35:45;;;;;;;10.75;4.80;;;;;;;;;;5014307;28;20030;-66
2024/04/03 06:38:12;;;;;;;10.40;5.15;;;;;;;;;;5014286;28;20022;-65
2024/04/03 06:40:38;;;;;;;8.35;4.70;;;;;;;;;;5013759;28;20104;-67
2024/04/03 06:43:04;;;;;;;9.65;4.93;;;;;;;;;;5028713;28;20466;-66
2024/04/03 06:45:30;;;;;;;9.93;4.68;;;;;;;;;;5013884;28;20040;-67
2024/04/03 06:47:55;;;;;;;11.40;6.05;;;;;;;;;;5013674;28;20112;-67
2024/04/03 06:50:21;;;;;;;9.05;5.70;;;;;;;;;;5013322;28;20479;-67
2024/04/03 06:52:46;;;;;;;9.32;4.72;;;;;;;;;;5013458;28;20026;-66
2024/04/03 06:55:12;;;;;;;10.90;6.10;;;;;;;;;;5013367;28;20022;-66
2024/04/03 06:57:38;;;;;;;9.13;4.63;;;;;;;;;;5013674;28;20075;-63
2024/04/03 07:00:03;;;;;;;9.15;4.65;;;;;;;;;;5012801;28;20047;-67
2024/04/03 07:02:29;;;;;;;9.45;5.82;;;;;;;;;;5013145;28;20028;-66
2024/04/03 07:04:54;;;;;;;9.85;5.38;;;;;;;;;;5013171;28;20114;-67
2024/04/03 07:07:19;;;;;;;8.82;4.00;;;;;;;;;;5012929;28;20034;-67
2024/04/03 07:09:45;;;;;;;9.82;5.15;;;;;;;;;;5013191;28;20030;-67
2024/04/03 07:12:10;;;;;;;10.00;4.22;;;;;;;;;;5012773;28;20021;-67
2024/04/03 07:14:35;;;;;;;7.88;4.40;;;;;;;;;;5012788;28;20434;-67
2024/04/03 07:17:01;;;;;;;12.00;5.10;;;;;;;;;;5013631;28;20032;-67
2024/04/03 07:19:26;;;;;;;12.80;4.20;;;;;;;;;;5013157;28;20022;-66
2024/04/03 07:21:53;;;;;;;9.57;4.07;;;;;;;;;;5013195;28;20021;-67
2024/04/03 07:24:18;;;;;;;7.68;3.85;;;;;;;;;;5011236;28;20438;-67
2024/04/03 07:26:44;;;;;;;8.25;5.07;;;;;;;;;;5013595;28;20033;-67
2024/04/03 07:29:12;;;;;;;6.70;4.47;;;;;;;;;;5013054;28;20025;-67
2024/04/03 07:31:37;;;;;;;10.15;4.00;;;;;;;;;;5011833;28;20380;-67
2024/04/03 07:34:03;;;;;;;8.45;4.38;;;;;;;;;;5012886;28;20040;-66
2024/04/03 07:36:28;;;;;;;7.07;4.43;;;;;;;;;;5013105;28;20038;-67
2024/04/03 07:38:54;;;;;;;9.82;4.20;;;;;;;;;;5013350;28;20372;-67
2024/04/03 07:41:28;;;;;;;6.82;3.75;;;;;;;;;;5013650;28;20025;-67
2024/04/03 07:43:53;;;;;;;7.68;3.80;;;;;;;;;;5013042;28;20520;-67
2024/04/03 07:46:19;;;;;;;6.25;3.53;;;;;;;;;;5012662;28;20040;-67
2024/04/03 07:48:45;;;;;;;6.25;4.25;;;;;;;;;;5013159;28;20093;-67
2024/04/03 07:51:10;;;;;;;5.47;2.95;;;;;;;;;;5011878;28;20509;-67
2024/04/03 07:53:36;;;;;;;8.10;3.67;;;;;;;;;;5013264;28;20364;-67
2024/04/03 07:56:01;;;;;;;7.15;3.65;;;;;;;;;;5013235;28;20026;-66
2024/04/03 07:58:26;;;;;;;6.47;3.38;;;;;;;;;;5012361;28;20022;-66
2024/04/03 08:01:01;;;;;;;7.07;3.35;;;;;;;;;;5013169;28;20091;-67
2024/04/03 08:03:26;;;;;;;4.53;2.65;;;;;;;;;;5012833;28;20022;-67
2024/04/03 08:05:55;;;;;;;5.38;3.22;;;;;;;;;;5012910;28;20387;-66
2024/04/03 08:08:22;;;;;;;6.07;3.53;;;;;;;;;;5012512;28;20072;-66
2024/04/03 08:10:47;;;;;;;6.10;3.47;;;;;;;;;;5012683;28;20092;-66
2024/04/03 08:13:13;;;;;;;6.55;3.53;;;;;;;;;;5012988;28;20459;-66
2024/04/03 08:15:38;;;;;;;5.72;3.67;;;;;;;;;;5012770;28;20026;-66
2024/04/03 08:18:03;;;;;;;5.20;3.30;;;;;;;;;;5012709;28;20034;-67
2024/04/03 08:20:29;;;;;;;5.43;4.38;;;;;;;;;;5010942;28;20467;-67
2024/04/03 08:22:54;;;;;;;5.20;3.00;;;;;;;;;;5013693;28;20018;-65
2024/04/03 08:25:19;;;;;;;5.25;2.92;;;;;;;;;;5016402;28;20034;-67
2024/04/03 08:27:45;;;;;;;6.32;3.67;;;;;;;;;;5016191;28;20051;-64
2024/04/03 08:30:10;;;;;;;4.30;2.92;;;;;;;;;;5016351;28;20083;-68
2024/04/03 08:32:38;;;;;;;6.15;3.72;;;;;;;;;;5015914;28;20021;-67
2024/04/03 08:35:04;;;;;;;4.53;2.65;;;;;;;;;;5016364;28;20018;-65
2024/04/03 08:37:29;;;;;;;6.28;2.92;;;;;;;;;;5016299;28;20084;-65
2024/04/03 08:39:54;;;;;;;3.97;3.30;;;;;;;;;;5015970;28;20028;-67
2024/04/03 08:42:20;;;;;;;4.40;2.65;;;;;;;;;;5016231;28;20021;-67
2024/04/03 08:44:46;;;;;;;3.85;2.67;;;;;;;;;;5016376;28;20022;-67
2024/04/03 08:47:12;;;;;;;6.28;3.42;;;;;;;;;;5015393;28;20072;-67
2024/04/03 08:49:37;;;;;;;5.63;3.92;;;;;;;;;;5016018;28;20021;-67
2024/04/03 08:52:08;;;;;;;4.70;3.10;;;;;;;;;;5015968;28;20034;-67
2024/04/03 08:54:33;;;;;;;5.05;3.08;;;;;;;;;;5016072;28;20053;-67
2024/04/03 08:57:01;;;;;;;5.40;3.17;;;;;;;;;;5015245;28;20100;-67
2024/04/03 08:59:26;;;;;;;4.97;2.78;;;;;;;;;;5014525;28;20503;-67
2024/04/03 09:01:52;;;;;;;3.85;2.53;;;;;;;;;;5014847;28;20088;-65
2024/04/03 09:04:18;;;;;;;4.50;3.00;;;;;;;;;;5013667;28;20029;-67
2024/04/03 09:06:44;;;;;;;3.65;2.70;;;;;;;;;;5013793;28;20026;-67
2024/04/03 09:09:17;;;;;;;4.93;3.10;;;;;;;;;;5015009;28;20040;-67
2024/04/03 09:11:42;;;;;;;4.63;3.05;;;;;;;;;;5015425;28;20026;-66
2024/04/03 09:14:08;;;;;;;3.33;2.20;;;;;;;;;;5014780;28;20080;-67
2024/04/03 09:16:33;;;;;;;5.93;2.92;;;;;;;;;;5015595;28;20038;-67
2024/04/03 09:19:10;;;;;;;5.15;3.63;;;;;;;;;;5015459;28;20022;-67
2024/04/03 09:21:36;;;;;;;4.43;2.70;;;;;;;;;;5015504;28;20391;-67
2024/04/03 09:24:01;;;;;;;5.88;3.35;;;;;;;;;;5014308;28;20038;-67
2024/04/03 09:26:26;;;;;;;4.75;2.83;;;;;;;;;;5014466;28;20030;-66
2024/04/03 09:29:02;;;;;;;6.10;3.08;;;;;;;;;;5014794;28;20026;-66
2024/04/03 09:31:27;;;;;;;7.03;3.35;;;;;;;;;;5014906;28;20032;-67
2024/04/03 09:33:53;;;;;;;6.40;3.22;;;;;;;;;;5012807;28;20764;-66
2024/04/03 09:36:21;;;;;;;3.60;2.88;;;;;;;;;;5013081;28;20021;-67
2024/04/03 09:38:47;;;;;;;5.28;3.20;;;;;;;;;;5013733;28;20018;-65
2024/04/03 09:41:13;;;;;;;5.13;3.55;;;;;;;;;;5014973;28;20022;-67
2024/04/03 09:43:43;;;;;;;4.15;3.08;;;;;;;;;;5014592;28;20110;-66
2024/04/03 09:46:12;;;;;;;4.72;3.92;;;;;;;;;;5013438;28;20475;-66
2024/04/03 09:48:38;;;;;;;4.57;3.30;;;;;;;;;;5014727;28;20029;-66
2024/04/03 09:51:04;;;;;;;5.60;3.33;;;;;;;;;;5002610;28;20088;-66
2024/04/03 09:53:30;;;;;;;4.85;3.95;;;;;;;;;;4994514;28;20551;-66
2024/04/03 09:55:56;;;;;;;5.00;4.05;;;;;;;;;;4994666;28;20484;-66
2024/04/03 09:58:26;;;;;;;7.60;4.03;;;;;;;;;;5010380;28;20050;-66
2024/04/03 10:00:54;;;;;;;5.88;4.43;;;;;;;;;;4995154;28;20109;-66
2024/04/03 10:03:23;;;;;;;5.65;4.05;;;;;;;;;;4996121;28;20125;-66
2024/04/03 10:05:58;;;;;;;7.50;5.63;;;;;;;;;;5014556;28;20083;-67
2024/04/03 10:08:30;;;;;;;6.25;4.82;;;;;;;;;;5013253;28;20021;-66
2024/04/03 10:10:57;;;;;;;9.05;5.70;;;;;;;;;;5014369;28;20039;-66
2024/04/03 10:13:27;;;;;;;6.40;5.75;;;;;;;;;;5014325;28;20032;-66
2024/04/03 10:16:02;;;;;;;5.85;4.80;;;;;;;;;;5013790;28;20029;-67
2024/04/03 10:18:28;;;;;;;6.28;4.55;;;;;;;;;;5014339;28;20026;-66
2024/04/03 10:20:57;;;;;;;8.25;5.57;;;;;;;;;;5012985;28;20022;-68
2024/04/03 10:23:24;;;;;;;6.05;4.53;;;;;;;;;;5029189;28;20407;-67
2024/04/03 10:25:50;;;;;;;6.00;4.55;;;;;;;;;;5013166;28;20061;-67
2024/04/03 10:28:15;;;;;;;5.53;4.43;;;;;;;;;;5012611;28;20485;-67
2024/04/03 10:30:41;;;;;;;5.65;4.63;;;;;;;;;;5013595;28;20030;-67
2024/04/03 10:33:06;;;;;;;5.05;3.88;;;;;;;;;;5012739;28;20018;-67
2024/04/03 10:35:31;;;;;;;6.93;5.13;;;;;;;;;;5013893;28;20506;-67
2024/04/03 10:38:01;;;;;;;5.53;4.28;;;;;;;;;;5013557;28;20555;-67
2024/04/03 10:40:26;;;;;;;5.53;4.30;;;;;;;;;;5013498;28;20037;-67
2024/04/03 10:42:52;;;;;;;4.93;4.13;;;;;;;;;;5014267;28;20022;-67
2024/04/03 10:45:17;;;;;;;4.70;3.63;;;;;;;;;;5013349;28;20030;-67
2024/04/03 10:47:43;;;;;;;4.35;3.55;;;;;;;;;;5013577;28;20029;-66
2024/04/03 10:50:10;;;;;;;3.90;3.38;;;;;;;;;;5013319;28;20448;-67
2024/04/03 10:52:35;;;;;;;5.22;3.67;;;;;;;;;;5013614;28;20042;-67
2024/04/03 10:55:01;;;;;;;4.10;3.58;;;;;;;;;;5011743;28;20128;-67
2024/04/03 10:57:27;;;;;;;3.40;3.05;;;;;;;;;;5013553;28;20479;-67
2024/04/03 10:59:55;;;;;;;4.05;3.20;;;;;;;;;;5013454;28;20026;-67
2024/04/03 11:02:21;;;;;;;3.88;3.42;;;;;;;;;;5013812;28;20505;-67
2024/04/03 11:04:48;;;;;;;5.97;3.45;;;;;;;;;;5012995;28;20029;-67
2024/04/03 11:07:15;;;;;;;3.75;3.10;;;;;;;;;;5011675;28;20060;-67
2024/04/03 11:09:40;;;;;;;4.88;3.42;;;;;;;;;;5012254;28;20021;-67
2024/04/03 11:12:09;;;;;;;4.95;3.72;;;;;;;;;;5013165;28;20033;-67
2024/04/03 11:14:35;;;;;;;3.35;2.78;;;;;;;;;;5012841;28;20030;-67
2024/04/03 11:17:01;;;;;;;3.75;3.03;;;;;;;;;;5013312;28;20034;-65
2024/04/03 11:19:26;;;;;;;3.13;2.58;;;;;;;;;;5011831;28;20025;-67
2024/04/03 11:21:52;;;;;;;3.10;2.60;;;;;;;;;;5013178;28;20042;-67
2024/04/03 11:24:17;;;;;;;3.47;2.83;;;;;;;;;;5006285;28;20023;-67
2024/04/03 11:26:43;;;;;;;3.55;2.53;;;;;;;;;;5007600;28;20407;-67
2024/04/03 11:29:30;;;;;;;4.07;2.40;;;;;;;;;;5013171;28;20028;-67
2024/04/03 11:31:58;;;;;;;5.00;2.53;;;;;;;;;;5013240;28;20026;-67
2024/04/03 11:34:27;;;;;;;3.17;2.50;;;;;;;;;;5012491;28;20072;-67
2024/04/03 11:36:52;;;;;;;5.43;2.55;;;;;;;;;;5013062;28;20064;-67
2024/04/03 11:39:18;;;;;;;2.72;2.15;;;;;;;;;;5012726;28;20451;-65
2024/04/03 11:41:44;;;;;;;3.40;2.50;;;;;;;;;;5011473;28;20514;-65
2024/04/03 11:44:09;;;;;;;5.65;2.83;;;;;;;;;;5013249;28;20030;-65
2024/04/03 11:46:35;;;;;;;3.53;2.50;;;;;;;;;;5013327;28;20394;-65
2024/04/03 11:49:02;;;;;;;5.20;2.50;;;;;;;;;;5013200;28;20464;-65
2024/04/03 11:51:28;;;;;;;4.13;2.60;;;;;;;;;;5012605;28;20108;-64
2024/04/03 11:53:53;;;;;;;3.58;2.55;;;;;;;;;;5012943;28;20037;-65
2024/04/03 11:56:20;;;;;;;2.95;2.38;;;;;;;;;;5012944;28;20022;-65
2024/04/03 11:58:46;;;;;;;4.13;2.65;;;;;;;;;;5017220;28;20463;-65
2024/04/03 12:01:11;;;;;;;4.22;3.42;;;;;;;;;;5016740;28;20037;-65
2024/04/03 12:03:36;;;;;;;3.53;2.45;;;;;;;;;;5014544;28;20053;-65
2024/04/03 12:06:03;;;;;;;4.65;2.80;;;;;;;;;;5016057;28;20036;-65
2024/04/03 12:08:29;;;;;;;3.17;2.42;;;;;;;;;;5016072;28;20064;-67
2024/04/03 12:10:54;;;;;;;3.75;2.53;;;;;;;;;;5039012;23;20464;-66
2024/04/03 12:13:19;;;;;;;3.95;2.58;;;;;;;;;;5015839;28;20056;-66
2024/04/03 12:15:47;;;;;;;4.03;2.80;;;;;;;;;;5015704;28;20029;-66
2024/04/03 12:18:12;;;;;;;3.40;2.28;;;;;;;;;;5016666;28;20029;-66
2024/04/03 12:20:40;;;;;;;3.72;2.65;;;;;;;;;;5012819;28;20053;-66
2024/04/03 12:23:05;;;;;;;3.13;2.42;;;;;;;;;;5011316;28;20506;-66
2024/04/03 12:25:31;;;;;;;4.40;2.47;;;;;;;;;;5003368;28;20091;-66
2024/04/03 12:27:56;;;;;;;5.60;2.78;;;;;;;;;;5015336;28;20025;-66
2024/04/03 12:30:21;;;;;;;3.42;2.30;;;;;;;;;;5015450;28;20025;-66
2024/04/03 12:32:47;;;;;;;3.20;2.35;;;;;;;;;;5014577;28;20029;-66
2024/04/03 12:35:14;;;;;;;3.40;2.50;;;;;;;;;;5015644;28;20018;-67
2024/04/03 12:37:41;;;;;;;5.15;2.85;;;;;;;;;;5014913;28;20026;-66
2024/04/03 12:40:08;;;;;;;3.90;2.45;;;;;;;;;;5007594;28;20403;-67
2024/04/03 12:42:34;;;;;;;3.58;2.53;;;;;;;;;;5015826;28;20037;-67
2024/04/03 12:44:59;;;;;;;7.05;2.63;;;;;;;;;;5007671;28;20026;-67
2024/04/03 12:47:24;;;;;;;4.28;2.78;;;;;;;;;;4995708;28;20034;-67
2024/04/03 12:49:50;;;;;;;4.28;2.50;;;;;;;;;;4995644;28;20399;-67
2024/04/03 12:52:15;;;;;;;4.57;2.63;;;;;;;;;;4998974;28;20080;-67
2024/04/03 12:54:41;;;;;;;4.45;2.45;;;;;;;;;;4995325;28;20018;-67
2024/04/03 12:57:06;;;;;;;3.72;3.10;;;;;;;;;;4995773;28;20034;-67
2024/04/03 12:59:31;;;;;;;3.78;2.70;;;;;;;;;;4995725;28;20476;-66
2024/04/03 13:01:57;;;;;;;4.38;2.92;;;;;;;;;;4996007;28;20027;-66
2024/04/03 13:04:22;;;;;;;3.78;2.95;;;;;;;;;;5003610;28;20034;-67
2024/04/03 13:06:47;;;;;;;4.20;2.60;;;;;;;;;;5015249;28;20026;-67
2024/04/03 13:09:13;;;;;;;5.97;3.28;;;;;;;;;;5007206;28;20028;-67
2024/04/03 13:11:42;;;;;;;4.50;3.30;;;;;;;;;;5006005;28;20022;-67
2024/04/03 13:14:08;;;;;;;4.97;2.88;;;;;;;;;;5012538;28;20014;-67
2024/04/03 13:16:34;;;;;;;3.33;2.83;;;;;;;;;;5015167;28;20020;-67
2024/04/03 13:18:59;;;;;;;4.63;2.67;;;;;;;;;;5014802;28;20054;-67
2024/04/03 13:21:24;;;;;;;4.57;3.20;;;;;;;;;;5013129;28;20125;-67
2024/04/03 13:23:50;;;;;;;4.65;2.80;;;;;;;;;;5014940;28;20024;-67
2024/04/03 13:26:16;;;;;;;4.63;2.92;;;;;;;;;;5014842;28;20524;-67
2024/04/03 13:28:41;;;;;;;5.22;2.92;;;;;;;;;;5015402;28;20022;-67
2024/04/03 13:31:07;;;;;;;6.30;3.10;;;;;;;;;;5014924;28;20457;-67
2024/04/03 13:33:32;;;;;;;4.38;2.85;;;;;;;;;;5013527;28;20032;-67
2024/04/03 13:35:57;;;;;;;3.38;2.22;;;;;;;;;;4994855;28;20022;-67
2024/04/03 13:38:23;;;;;;;4.97;3.10;;;;;;;;;;4995107;28;20029;-67
2024/04/03 13:40:48;;;;;;;5.45;3.00;;;;;;;;;;5001635;28;20026;-66
2024/04/03 13:43:14;;;;;;;5.65;2.60;;;;;;;;;;4995275;28;20030;-66
2024/04/03 13:45:39;;;;;;;5.70;2.97;;;;;;;;;;4994517;28;20022;-66
2024/04/03 13:48:05;;;;;;;6.35;3.33;;;;;;;;;;4994850;28;20041;-66
2024/04/03 13:50:31;;;;;;;5.90;3.03;;;;;;;;;;5000683;28;20025;-67
2024/04/03 13:52:56;;;;;;;3.58;2.67;;;;;;;;;;4993645;28;20038;-66
2024/04/03 13:55:22;;;;;;;4.70;3.30;;;;;;;;;;4994815;28;20068;-67
2024/04/03 13:57:47;;;;;;;5.07;2.97;;;;;;;;;;4994380;28;20018;-66
2024/04/03 14:00:21;;;;;;;7.75;2.83;;;;;;;;;;4994806;28;20393;-67
2024/04/03 14:02:47;;;;;;;4.68;3.00;;;;;;;;;;4995125;28;20062;-67
2024/04/03 14:05:14;;;;;;;6.25;2.70;;;;;;;;;;5009047;28;20026;-67
2024/04/03 14:07:39;;;;;;;5.63;3.55;;;;;;;;;;5012908;28;20045;-67
2024/04/03 14:10:04;;;;;;;6.35;3.53;;;;;;;;;;4995767;28;20030;-67
2024/04/03 14:12:30;;;;;;;5.20;3.47;;;;;;;;;;4993817;28;20030;-66
2024/04/03 14:14:55;;;;;;;5.65;2.95;;;;;;;;;;4994676;28;20400;-67
2024/04/03 14:17:20;;;;;;;4.40;2.90;;;;;;;;;;4994450;28;20038;-67
2024/04/03 14:19:46;;;;;;;6.55;3.85;;;;;;;;;;4995039;28;20026;-66
2024/04/03 14:22:11;;;;;;;6.40;3.75;;;;;;;;;;5013633;28;20483;-66
2024/04/03 14:24:37;;;;;;;4.22;2.53;;;;;;;;;;5013412;28;20028;-65
2024/04/03 14:27:03;;;;;;;4.45;2.92;;;;;;;;;;5013668;28;20096;-67
2024/04/03 14:29:29;;;;;;;5.03;3.25;;;;;;;;;;5011854;28;20384;-66
2024/04/03 14:31:54;;;;;;;4.32;3.22;;;;;;;;;;4995609;28;20080;-67
2024/04/03 14:34:22;;;;;;;4.60;3.25;;;;;;;;;;5005761;28;20032;-67
2024/04/03 14:36:50;;;;;;;5.50;3.42;;;;;;;;;;5013845;28;20108;-67
2024/04/03 14:39:16;;;;;;;4.78;3.22;;;;;;;;;;5012932;28;20026;-67
2024/04/03 14:41:42;;;;;;;6.68;3.03;;;;;;;;;;5002046;28;20033;-66